Time;durP1;ratioP1;P1;durP2;ratioP2;P2;SDS_P1;SDS_P2;PMS_P1;PMS_P2;Temp;Humidity;BMP_temperature;BMP_pressure;BME280_temperature;BME280_humidity;BME280_pressure;Samples;Min_cycle;Max_cycle;Signal;HPM_P1;HPM_P2
2022/11/23 00:01:19;;;;;;;28.63;25.37;;;;;;;;;;5060315;28;21052;-56
2022/11/23 00:03:45;;;;;;;33.37;26.10;;;;;;;;;;5057551;28;20252;-55
2022/11/23 00:06:11;;;;;;;36.10;28.60;;;;;;;;;;5061358;28;20605;-55
2022/11/23 00:08:36;;;;;;;33.37;28.30;;;;;;;;;;5055443;28;20660;-55
2022/11/23 00:11:01;;;;;;;32.23;25.13;;;;;;;;;;5052390;28;20552;-55
2022/11/23 00:13:27;;;;;;;28.80;25.27;;;;;;;;;;5051022;28;20558;-56
2022/11/23 00:15:52;;;;;;;29.23;26.13;;;;;;;;;;5059856;28;20239;-55
2022/11/23 00:18:17;;;;;;;34.23;26.97;;;;;;;;;;5057015;28;20222;-55
2022/11/23 00:20:42;;;;;;;38.57;25.80;;;;;;;;;;5066571;28;20545;-55
2022/11/23 00:23:08;;;;;;;30.03;24.53;;;;;;;;;;5063910;28;20229;-56
2022/11/23 00:25:33;;;;;;;31.40;26.90;;;;;;;;;;5060711;28;20183;-56
2022/11/23 00:27:59;;;;;;;32.13;25.03;;;;;;;;;;5062608;28;20260;-56
2022/11/23 00:30:24;;;;;;;32.60;25.57;;;;;;;;;;5061930;28;20183;-55
2022/11/23 00:32:49;;;;;;;28.40;24.60;;;;;;;;;;5059672;28;20190;-55
2022/11/23 00:35:14;;;;;;;28.30;24.23;;;;;;;;;;5060087;28;20261;-56
2022/11/23 00:37:39;;;;;;;29.30;23.77;;;;;;;;;;5059537;28;20217;-55
2022/11/23 00:40:05;;;;;;;31.63;25.98;;;;;;;;;;5050862;28;20210;-55
2022/11/23 00:42:30;;;;;;;28.80;25.27;;;;;;;;;;5061636;28;20233;-56
2022/11/23 00:44:55;;;;;;;32.50;25.10;;;;;;;;;;5055370;28;20191;-55
2022/11/23 00:47:20;;;;;;;31.50;25.33;;;;;;;;;;5064893;28;20174;-56
2022/11/23 00:49:45;;;;;;;28.13;25.05;;;;;;;;;;5064954;28;20165;-56
2022/11/23 00:52:11;;;;;;;28.20;23.75;;;;;;;;;;5064236;28;20224;-56
2022/11/23 00:54:36;;;;;;;30.10;24.20;;;;;;;;;;5058725;28;20671;-56
2022/11/23 00:57:01;;;;;;;28.30;23.87;;;;;;;;;;5064856;28;20179;-56
2022/11/23 00:59:28;;;;;;;26.23;22.20;;;;;;;;;;5053176;28;20266;-56
2022/11/23 01:01:53;;;;;;;26.17;22.87;;;;;;;;;;5052238;28;20669;-56
2022/11/23 01:04:18;;;;;;;28.37;24.50;;;;;;;;;;5061235;28;20614;-56
2022/11/23 01:06:43;;;;;;;27.27;23.30;;;;;;;;;;5062398;28;20189;-56
2022/11/23 01:09:13;;;;;;;27.10;23.17;;;;;;;;;;5069950;28;20170;-55
2022/11/23 01:11:38;;;;;;;26.60;22.80;;;;;;;;;;5059321;28;20591;-56
2022/11/23 01:14:04;;;;;;;30.60;23.80;;;;;;;;;;5058299;28;20675;-55
2022/11/23 01:16:30;;;;;;;26.37;21.97;;;;;;;;;;5064493;28;20190;-55
2022/11/23 01:18:57;;;;;;;29.13;23.17;;;;;;;;;;5061811;28;20233;-55
2022/11/23 01:21:22;;;;;;;29.27;23.33;;;;;;;;;;5052399;28;20672;-55
2022/11/23 01:23:47;;;;;;;26.20;22.37;;;;;;;;;;5051911;28;21069;-55
2022/11/23 01:26:13;;;;;;;26.67;22.47;;;;;;;;;;5059258;28;20169;-55
2022/11/23 01:28:38;;;;;;;31.37;23.57;;;;;;;;;;5067268;28;20243;-55
2022/11/23 01:31:05;;;;;;;26.30;22.40;;;;;;;;;;5069689;28;20191;-56
2022/11/23 01:33:30;;;;;;;29.23;23.37;;;;;;;;;;5065494;28;20189;-56
2022/11/23 01:35:55;;;;;;;28.33;24.27;;;;;;;;;;5058559;28;20600;-56
2022/11/23 01:38:21;;;;;;;28.73;23.77;;;;;;;;;;5058707;28;20256;-56
2022/11/23 01:40:46;;;;;;;25.70;22.48;;;;;;;;;;5058560;28;20217;-56
2022/11/23 01:43:15;;;;;;;26.85;22.73;;;;;;;;;;5049730;28;20553;-56
2022/11/23 01:45:41;;;;;;;28.23;22.10;;;;;;;;;;5055060;28;20648;-55
2022/11/23 01:48:18;;;;;;;29.63;24.00;;;;;;;;;;5054106;28;21210;-55
2022/11/23 01:50:45;;;;;;;25.70;22.00;;;;;;;;;;5053903;28;21208;-55
2022/11/23 01:53:11;;;;;;;26.93;23.00;;;;;;;;;;5050528;28;20614;-55
2022/11/23 01:55:36;;;;;;;30.40;22.93;;;;;;;;;;5062354;28;21156;-56
2022/11/23 01:58:02;;;;;;;28.67;23.60;;;;;;;;;;5072675;28;20178;-55
2022/11/23 02:00:27;;;;;;;25.87;22.83;;;;;;;;;;5056106;28;20199;-55
2022/11/23 02:02:55;;;;;;;30.63;24.93;;;;;;;;;;5065012;28;21160;-55
2022/11/23 02:05:22;;;;;;;29.43;24.50;;;;;;;;;;5069495;28;20231;-55
2022/11/23 02:07:48;;;;;;;28.20;23.80;;;;;;;;;;5065317;28;20594;-55
2022/11/23 02:10:14;;;;;;;28.20;23.23;;;;;;;;;;5062215;28;20588;-55
2022/11/23 02:12:39;;;;;;;26.67;22.90;;;;;;;;;;5059528;28;21085;-55
2022/11/23 02:15:05;;;;;;;29.20;23.97;;;;;;;;;;5072623;28;20882;-55
2022/11/23 02:17:32;;;;;;;29.80;22.50;;;;;;;;;;5060010;28;20208;-56
2022/11/23 02:20:07;;;;;;;29.10;24.40;;;;;;;;;;5054318;28;20195;-56
2022/11/23 02:22:53;;;;;;;29.73;23.63;;;;;;;;;;5059934;28;20603;-56
2022/11/23 02:25:24;;;;;;;29.27;22.87;;;;;;;;;;5054125;28;21079;-56
2022/11/23 02:27:49;;;;;;;29.20;24.10;;;;;;;;;;5062696;28;21376;-56
2022/11/23 02:30:14;;;;;;;27.70;24.67;;;;;;;;;;5066485;28;20616;-56
2022/11/23 02:32:40;;;;;;;29.03;22.73;;;;;;;;;;5065407;28;20264;-56
2022/11/23 02:35:05;;;;;;;29.77;23.43;;;;;;;;;;5056630;28;20560;-56
2022/11/23 02:37:31;;;;;;;30.40;25.00;;;;;;;;;;5059671;28;20611;-56
2022/11/23 02:39:58;;;;;;;30.03;23.83;;;;;;;;;;5070356;28;20184;-54
2022/11/23 02:42:25;;;;;;;31.03;23.73;;;;;;;;;;5060185;28;20198;-55
2022/11/23 02:44:55;;;;;;;30.80;23.77;;;;;;;;;;5053760;28;20604;-55
2022/11/23 02:47:20;;;;;;;27.17;22.97;;;;;;;;;;5052704;28;21157;-55
2022/11/23 02:49:46;;;;;;;31.37;23.63;;;;;;;;;;5068776;28;20611;-56
2022/11/23 02:52:11;;;;;;;31.07;23.60;;;;;;;;;;5053924;28;20802;-56
2022/11/23 02:54:36;;;;;;;29.90;24.10;;;;;;;;;;5072744;28;20207;-55
2022/11/23 02:57:01;;;;;;;32.60;24.27;;;;;;;;;;5067316;28;20225;-55
2022/11/23 02:59:27;;;;;;;31.67;23.90;;;;;;;;;;5052296;28;20178;-55
2022/11/23 03:01:53;;;;;;;31.57;25.50;;;;;;;;;;5060519;28;20225;-55
2022/11/23 03:04:18;;;;;;;30.97;25.23;;;;;;;;;;5071045;28;21118;-55
2022/11/23 03:06:43;;;;;;;32.10;24.70;;;;;;;;;;5057774;28;20177;-55
2022/11/23 03:09:08;;;;;;;31.57;23.67;;;;;;;;;;5065409;28;20169;-55
2022/11/23 03:11:33;;;;;;;30.80;23.27;;;;;;;;;;5067247;28;20215;-55
2022/11/23 03:13:59;;;;;;;30.07;24.53;;;;;;;;;;5056409;28;20194;-56
2022/11/23 03:16:24;;;;;;;32.50;24.43;;;;;;;;;;5070201;28;20596;-55
2022/11/23 03:18:49;;;;;;;32.60;24.90;;;;;;;;;;5067028;28;20696;-55
2022/11/23 03:21:14;;;;;;;32.37;24.70;;;;;;;;;;5063394;28;20206;-56
2022/11/23 03:23:39;;;;;;;32.50;23.47;;;;;;;;;;5071508;28;20175;-56
2022/11/23 03:26:05;;;;;;;30.97;24.20;;;;;;;;;;5051881;28;20710;-56
2022/11/23 03:28:30;;;;;;;30.63;23.50;;;;;;;;;;5055083;28;20174;-56
2022/11/23 03:30:55;;;;;;;33.30;25.10;;;;;;;;;;5052145;28;20197;-56
2022/11/23 03:33:20;;;;;;;30.60;25.33;;;;;;;;;;5055861;28;20187;-56
2022/11/23 03:35:46;;;;;;;31.67;24.77;;;;;;;;;;5064321;28;20182;-56
2022/11/23 03:38:11;;;;;;;31.77;24.70;;;;;;;;;;5065719;28;20549;-56
2022/11/23 03:40:36;;;;;;;28.93;23.60;;;;;;;;;;5052677;28;20252;-56
2022/11/23 03:43:02;;;;;;;30.37;24.00;;;;;;;;;;5052654;28;20175;-56
2022/11/23 03:45:27;;;;;;;26.73;23.37;;;;;;;;;;5065441;28;20175;-55
2022/11/23 03:47:52;;;;;;;29.23;23.50;;;;;;;;;;5058715;28;20167;-55
2022/11/23 03:50:17;;;;;;;31.73;25.57;;;;;;;;;;5064054;28;20241;-56
2022/11/23 03:52:42;;;;;;;31.67;25.70;;;;;;;;;;5052240;28;20292;-56
2022/11/23 03:55:08;;;;;;;32.20;23.53;;;;;;;;;;5054669;28;20186;-56
2022/11/23 03:57:33;;;;;;;30.80;23.60;;;;;;;;;;5061007;28;20232;-56
2022/11/23 03:59:58;;;;;;;28.73;22.90;;;;;;;;;;5067513;28;20189;-56
2022/11/23 04:02:23;;;;;;;30.60;23.77;;;;;;;;;;5054416;28;20186;-56
2022/11/23 04:04:48;;;;;;;32.40;25.50;;;;;;;;;;5065954;28;20246;-57
2022/11/23 04:07:14;;;;;;;32.90;24.20;;;;;;;;;;5053042;28;20186;-56
2022/11/23 04:09:39;;;;;;;28.27;24.07;;;;;;;;;;5053644;28;20177;-56
2022/11/23 04:12:04;;;;;;;29.25;23.98;;;;;;;;;;5055802;28;20192;-56
2022/11/23 04:14:29;;;;;;;27.17;22.73;;;;;;;;;;5068880;28;20178;-56
2022/11/23 04:16:54;;;;;;;33.17;23.80;;;;;;;;;;5066665;28;20263;-56
2022/11/23 04:19:20;;;;;;;27.10;23.80;;;;;;;;;;5056314;28;20217;-58
2022/11/23 04:21:45;;;;;;;29.27;23.80;;;;;;;;;;5068495;28;20269;-57
2022/11/23 04:24:10;;;;;;;27.63;23.57;;;;;;;;;;5067795;28;20267;-56
2022/11/23 04:26:35;;;;;;;33.00;24.23;;;;;;;;;;5066241;28;20198;-57
2022/11/23 04:29:01;;;;;;;32.10;24.77;;;;;;;;;;5083466;28;20641;-56
2022/11/23 04:31:26;;;;;;;30.17;23.47;;;;;;;;;;5067778;28;20259;-57
2022/11/23 04:33:51;;;;;;;29.60;23.00;;;;;;;;;;5065635;28;20234;-56
2022/11/23 04:36:16;;;;;;;31.53;24.40;;;;;;;;;;5064828;28;20175;-56
2022/11/23 04:38:41;;;;;;;31.10;24.03;;;;;;;;;;5050784;28;20178;-56
2022/11/23 04:41:07;;;;;;;31.00;24.13;;;;;;;;;;5060606;28;20206;-55
2022/11/23 04:43:32;;;;;;;30.20;23.17;;;;;;;;;;5051797;28;20601;-55
2022/11/23 04:45:57;;;;;;;30.17;23.73;;;;;;;;;;5059516;28;20226;-56
2022/11/23 04:48:22;;;;;;;32.50;25.00;;;;;;;;;;5064888;28;20259;-55
2022/11/23 04:50:47;;;;;;;32.17;25.50;;;;;;;;;;5056346;28;20178;-56
2022/11/23 04:53:12;;;;;;;33.63;24.77;;;;;;;;;;5069645;28;20281;-55
2022/11/23 04:55:38;;;;;;;29.70;24.20;;;;;;;;;;5074494;28;20244;-55
2022/11/23 04:58:03;;;;;;;30.10;24.63;;;;;;;;;;5062899;28;20182;-55
2022/11/23 05:00:28;;;;;;;33.50;25.27;;;;;;;;;;5064623;28;20291;-56
2022/11/23 05:02:53;;;;;;;31.33;24.50;;;;;;;;;;5061676;28;20173;-56
2022/11/23 05:05:18;;;;;;;35.30;26.00;;;;;;;;;;5068412;28;20641;-56
2022/11/23 05:07:44;;;;;;;31.73;23.83;;;;;;;;;;5058806;28;20224;-56
2022/11/23 05:10:09;;;;;;;29.10;23.87;;;;;;;;;;5075528;28;20178;-55
2022/11/23 05:12:35;;;;;;;29.60;23.80;;;;;;;;;;5079542;28;20307;-55
2022/11/23 05:15:00;;;;;;;30.67;24.30;;;;;;;;;;5068972;28;20194;-55
2022/11/23 05:17:26;;;;;;;34.03;25.27;;;;;;;;;;5075923;28;20616;-56
2022/11/23 05:19:51;;;;;;;33.43;25.17;;;;;;;;;;5073256;28;20524;-56
2022/11/23 05:22:16;;;;;;;28.60;23.42;;;;;;;;;;5058593;28;20600;-56
2022/11/23 05:24:42;;;;;;;31.27;25.97;;;;;;;;;;5058072;28;20175;-56
2022/11/23 05:27:07;;;;;;;30.80;24.08;;;;;;;;;;5062876;28;20176;-55
2022/11/23 05:29:32;;;;;;;35.88;26.15;;;;;;;;;;5057299;28;20228;-56
2022/11/23 05:31:57;;;;;;;32.28;26.17;;;;;;;;;;5061961;28;20200;-56
2022/11/23 05:34:22;;;;;;;29.20;24.07;;;;;;;;;;5062506;28;20232;-56
2022/11/23 05:36:47;;;;;;;32.23;24.90;;;;;;;;;;5068602;28;20244;-56
2022/11/23 05:39:12;;;;;;;32.60;25.37;;;;;;;;;;5059636;28;20256;-56
2022/11/23 05:41:38;;;;;;;33.15;25.42;;;;;;;;;;5055869;28;20205;-56
2022/11/23 05:44:03;;;;;;;37.27;25.30;;;;;;;;;;5068313;28;20177;-56
2022/11/23 05:46:28;;;;;;;30.67;24.57;;;;;;;;;;5071334;28;20177;-57
2022/11/23 05:48:53;;;;;;;32.80;26.33;;;;;;;;;;5070252;28;20177;-57
2022/11/23 05:51:18;;;;;;;31.30;24.50;;;;;;;;;;5063066;28;20291;-57
2022/11/23 05:53:44;;;;;;;32.63;25.23;;;;;;;;;;5057485;28;20712;-57
2022/11/23 05:56:09;;;;;;;36.53;26.80;;;;;;;;;;5051241;28;20186;-58
2022/11/23 05:58:34;;;;;;;36.27;26.13;;;;;;;;;;5069448;28;20256;-57
2022/11/23 06:01:00;;;;;;;33.50;25.60;;;;;;;;;;5066042;28;20205;-57
2022/11/23 06:03:28;;;;;;;31.43;25.27;;;;;;;;;;5052197;28;20202;-58
2022/11/23 06:05:54;;;;;;;34.03;25.20;;;;;;;;;;5059681;28;20266;-57
2022/11/23 06:08:19;;;;;;;31.60;24.77;;;;;;;;;;5062339;28;20709;-57
2022/11/23 06:10:44;;;;;;;34.73;25.73;;;;;;;;;;5063935;28;20186;-56
2022/11/23 06:13:09;;;;;;;34.00;26.10;;;;;;;;;;5066817;28;20211;-57
2022/11/23 06:15:35;;;;;;;32.03;24.77;;;;;;;;;;5056296;28;20175;-57
2022/11/23 06:18:00;;;;;;;30.63;25.70;;;;;;;;;;5055564;28;20298;-57
2022/11/23 06:20:26;;;;;;;37.77;27.27;;;;;;;;;;5058721;28;20200;-56
2022/11/23 06:22:52;;;;;;;33.97;27.07;;;;;;;;;;5056697;28;20175;-56
2022/11/23 06:25:17;;;;;;;36.57;26.73;;;;;;;;;;5067574;28;20669;-56
2022/11/23 06:27:50;;;;;;;28.80;23.20;;;;;;;;;;5049089;28;20174;-57
2022/11/23 06:30:15;;;;;;;36.13;27.77;;;;;;;;;;5050202;28;20652;-58
2022/11/23 06:32:40;;;;;;;34.10;27.10;;;;;;;;;;5052582;28;20688;-57
2022/11/23 06:35:05;;;;;;;30.97;26.27;;;;;;;;;;5065745;28;20624;-57
2022/11/23 06:37:30;;;;;;;32.80;26.63;;;;;;;;;;5072500;28;20181;-57
2022/11/23 06:39:56;;;;;;;32.97;25.53;;;;;;;;;;5072480;28;20177;-57
2022/11/23 06:42:21;;;;;;;33.27;27.10;;;;;;;;;;5071380;28;20171;-57
2022/11/23 06:44:46;;;;;;;34.53;27.45;;;;;;;;;;5070824;28;20591;-55
2022/11/23 06:47:11;;;;;;;34.07;27.67;;;;;;;;;;5052463;28;20181;-57
2022/11/23 06:49:36;;;;;;;33.67;25.53;;;;;;;;;;5051999;28;20174;-57
2022/11/23 06:52:02;;;;;;;35.73;27.53;;;;;;;;;;5052256;28;20179;-56
2022/11/23 06:54:27;;;;;;;33.97;26.20;;;;;;;;;;5051966;28;20179;-58
2022/11/23 06:56:52;;;;;;;36.73;29.20;;;;;;;;;;5070548;28;20177;-57
2022/11/23 06:59:17;;;;;;;36.50;26.38;;;;;;;;;;5072413;28;20178;-56
2022/11/23 07:01:42;;;;;;;30.97;27.37;;;;;;;;;;5071883;28;20663;-57
2022/11/23 07:04:08;;;;;;;31.03;26.93;;;;;;;;;;5071964;28;20205;-56
2022/11/23 07:06:33;;;;;;;35.87;28.17;;;;;;;;;;5064735;28;20175;-57
2022/11/23 07:08:58;;;;;;;37.67;28.63;;;;;;;;;;5052639;28;20179;-56
2022/11/23 07:11:23;;;;;;;34.73;25.87;;;;;;;;;;5055684;28;20257;-55
2022/11/23 07:13:48;;;;;;;34.37;26.17;;;;;;;;;;5057238;28;20559;-55
2022/11/23 07:16:13;;;;;;;31.08;26.17;;;;;;;;;;5054006;28;20193;-55
2022/11/23 07:18:39;;;;;;;32.77;26.87;;;;;;;;;;5069736;28;20211;-56
2022/11/23 07:21:04;;;;;;;34.63;28.58;;;;;;;;;;5065945;28;20217;-57
2022/11/23 07:23:29;;;;;;;35.53;27.73;;;;;;;;;;5055765;28;20645;-56
2022/11/23 07:25:54;;;;;;;33.27;27.07;;;;;;;;;;5061203;28;20175;-56
2022/11/23 07:28:19;;;;;;;31.23;26.97;;;;;;;;;;5066899;28;20633;-56
2022/11/23 07:30:44;;;;;;;35.13;28.30;;;;;;;;;;5068282;28;20186;-57
2022/11/23 07:33:10;;;;;;;31.97;27.60;;;;;;;;;;5052858;28;20175;-56
2022/11/23 07:35:37;;;;;;;34.30;26.70;;;;;;;;;;5066454;28;20196;-57
2022/11/23 07:38:02;;;;;;;38.40;26.80;;;;;;;;;;5064857;28;20690;-56
2022/11/23 07:40:27;;;;;;;30.57;26.90;;;;;;;;;;5052480;28;21098;-56
2022/11/23 07:42:52;;;;;;;35.70;27.80;;;;;;;;;;5051445;28;20316;-56
2022/11/23 07:45:18;;;;;;;35.80;27.47;;;;;;;;;;5052746;28;20175;-56
2022/11/23 07:47:43;;;;;;;33.67;27.67;;;;;;;;;;5056311;28;20583;-56
2022/11/23 07:50:09;;;;;;;34.83;28.63;;;;;;;;;;5052671;28;20212;-56
2022/11/23 07:52:35;;;;;;;35.50;28.20;;;;;;;;;;5069165;28;20180;-55
2022/11/23 07:55:00;;;;;;;33.77;28.07;;;;;;;;;;5058975;28;20688;-56
2022/11/23 07:57:26;;;;;;;32.23;25.97;;;;;;;;;;5060178;28;20173;-56
2022/11/23 07:59:51;;;;;;;33.30;26.70;;;;;;;;;;5051130;28;20172;-56
2022/11/23 08:02:16;;;;;;;33.78;27.13;;;;;;;;;;5064778;28;20666;-56
2022/11/23 08:04:42;;;;;;;33.70;27.63;;;;;;;;;;5070594;28;20177;-56
2022/11/23 08:07:07;;;;;;;34.60;27.90;;;;;;;;;;5071197;28;20579;-56
2022/11/23 08:09:32;;;;;;;32.13;26.47;;;;;;;;;;5070913;28;20201;-56
2022/11/23 08:11:57;;;;;;;33.83;27.03;;;;;;;;;;5062698;28;20219;-56
2022/11/23 08:14:22;;;;;;;30.63;25.65;;;;;;;;;;5050402;28;20232;-56
2022/11/23 08:16:49;;;;;;;33.70;27.10;;;;;;;;;;5051040;28;20221;-56
2022/11/23 08:19:14;;;;;;;37.90;27.80;;;;;;;;;;5050672;28;20306;-56
2022/11/23 08:21:39;;;;;;;33.78;28.08;;;;;;;;;;5050533;28;20740;-56
2022/11/23 08:24:06;;;;;;;34.17;27.17;;;;;;;;;;5070288;28;20205;-56
2022/11/23 08:26:31;;;;;;;36.13;26.83;;;;;;;;;;5070426;28;20679;-56
2022/11/23 08:28:56;;;;;;;35.50;27.20;;;;;;;;;;5070558;28;20179;-57
2022/11/23 08:31:21;;;;;;;34.27;29.03;;;;;;;;;;5070657;28;20186;-56
2022/11/23 08:33:46;;;;;;;31.40;27.63;;;;;;;;;;5057486;28;20177;-57
2022/11/23 08:36:11;;;;;;;34.97;27.85;;;;;;;;;;5050482;28;20192;-56
2022/11/23 08:38:37;;;;;;;33.40;28.17;;;;;;;;;;5050455;28;20228;-56
2022/11/23 08:41:04;;;;;;;32.30;28.00;;;;;;;;;;5050505;28;20206;-56
2022/11/23 08:43:29;;;;;;;34.43;30.00;;;;;;;;;;5052701;28;20220;-56
2022/11/23 08:45:55;;;;;;;34.23;27.03;;;;;;;;;;5048398;28;20604;-56
2022/11/23 08:48:20;;;;;;;35.10;29.07;;;;;;;;;;5050502;28;20218;-55
2022/11/23 08:50:45;;;;;;;33.20;29.10;;;;;;;;;;5050066;28;20215;-55
2022/11/23 08:53:10;;;;;;;32.97;28.97;;;;;;;;;;5050192;28;20164;-56
2022/11/23 08:55:35;;;;;;;33.55;26.90;;;;;;;;;;5069306;28;20269;-55
2022/11/23 08:58:01;;;;;;;33.27;27.30;;;;;;;;;;5068930;28;20175;-56
2022/11/23 09:00:26;;;;;;;31.53;27.50;;;;;;;;;;5070580;28;20211;-56
2022/11/23 09:02:52;;;;;;;32.60;24.93;;;;;;;;;;5070458;28;20281;-56
2022/11/23 09:05:17;;;;;;;36.03;28.70;;;;;;;;;;5072272;28;20268;-56
2022/11/23 09:07:42;;;;;;;30.00;26.80;;;;;;;;;;5071676;28;20548;-55
2022/11/23 09:10:08;;;;;;;30.23;26.60;;;;;;;;;;5054927;28;20630;-56
2022/11/23 09:12:33;;;;;;;34.20;28.30;;;;;;;;;;5054033;28;20688;-55
2022/11/23 09:14:58;;;;;;;31.97;28.73;;;;;;;;;;5054110;28;20169;-56
2022/11/23 09:17:23;;;;;;;31.27;27.93;;;;;;;;;;5053837;28;20175;-57
2022/11/23 09:19:51;;;;;;;32.10;27.73;;;;;;;;;;5069893;28;20217;-56
2022/11/23 09:22:16;;;;;;;34.10;30.67;;;;;;;;;;5073837;28;20253;-56
2022/11/23 09:24:41;;;;;;;32.83;28.47;;;;;;;;;;5073959;28;20568;-56
2022/11/23 09:27:07;;;;;;;31.20;27.43;;;;;;;;;;5073958;28;20164;-56
2022/11/23 09:29:32;;;;;;;31.20;28.10;;;;;;;;;;5061726;28;20682;-55
2022/11/23 09:31:57;;;;;;;32.97;29.57;;;;;;;;;;5054033;28;20179;-55
2022/11/23 09:34:22;;;;;;;33.75;30.55;;;;;;;;;;5053288;28;20253;-55
2022/11/23 09:36:48;;;;;;;33.17;29.70;;;;;;;;;;5053843;28;20173;-55
2022/11/23 09:39:13;;;;;;;31.00;27.70;;;;;;;;;;5057097;28;20636;-56
2022/11/23 09:41:38;;;;;;;32.97;29.70;;;;;;;;;;5072955;28;20209;-56
2022/11/23 09:44:15;;;;;;;32.40;29.17;;;;;;;;;;5073705;28;20263;-55
2022/11/23 09:46:56;;;;;;;30.90;27.83;;;;;;;;;;5073442;28;20210;-56
2022/11/23 09:49:25;;;;;;;29.90;27.10;;;;;;;;;;5070142;28;20606;-56
2022/11/23 09:51:54;;;;;;;30.73;27.40;;;;;;;;;;5053750;28;20633;-54
2022/11/23 09:54:22;;;;;;;28.70;25.90;;;;;;;;;;5053547;28;21003;-56
2022/11/23 09:56:50;;;;;;;30.07;27.07;;;;;;;;;;5052857;28;20576;-55
2022/11/23 09:59:35;;;;;;;30.97;27.67;;;;;;;;;;5053702;28;20761;-55
2022/11/23 10:02:00;;;;;;;30.70;27.67;;;;;;;;;;5052833;28;20751;-56
2022/11/23 10:04:28;;;;;;;30.60;27.40;;;;;;;;;;5053253;28;20570;-55
2022/11/23 10:06:55;;;;;;;28.40;25.60;;;;;;;;;;5053173;28;20179;-56
2022/11/23 10:09:26;;;;;;;28.40;25.50;;;;;;;;;;5053318;28;21149;-54
2022/11/23 10:11:58;;;;;;;28.63;25.93;;;;;;;;;;5056124;28;20651;-54
2022/11/23 10:14:42;;;;;;;30.07;27.13;;;;;;;;;;5053079;28;20689;-55
2022/11/23 10:17:07;;;;;;;29.20;26.30;;;;;;;;;;5051949;28;20582;-56
2022/11/23 10:19:50;;;;;;;28.77;25.33;;;;;;;;;;5053082;28;20984;-56
2022/11/23 10:22:25;;;;;;;27.77;25.13;;;;;;;;;;5065735;28;20208;-56
2022/11/23 10:24:51;;;;;;;27.30;24.60;;;;;;;;;;5072958;28;20591;-54
2022/11/23 10:27:17;;;;;;;27.40;24.70;;;;;;;;;;5072918;28;20579;-56
2022/11/23 10:29:42;;;;;;;28.27;25.60;;;;;;;;;;5073009;28;20641;-55
2022/11/23 10:32:21;;;;;;;26.77;24.17;;;;;;;;;;5071218;28;21001;-55
2022/11/23 10:35:02;;;;;;;24.90;22.47;;;;;;;;;;5072488;28;20268;-56
2022/11/23 10:37:27;;;;;;;24.97;22.57;;;;;;;;;;5062327;28;20706;-55
2022/11/23 10:39:52;;;;;;;24.97;22.60;;;;;;;;;;5055453;28;21324;-55
2022/11/23 10:42:27;;;;;;;26.20;23.60;;;;;;;;;;5072623;28;20213;-55
2022/11/23 10:44:54;;;;;;;26.60;23.97;;;;;;;;;;5070557;28;20535;-55
2022/11/23 10:47:32;;;;;;;25.90;23.33;;;;;;;;;;5072205;28;20669;-55
2022/11/23 10:49:57;;;;;;;26.63;23.83;;;;;;;;;;5072697;28;20964;-55
2022/11/23 10:52:27;;;;;;;27.37;24.77;;;;;;;;;;5072578;28;20578;-55
2022/11/23 10:54:54;;;;;;;28.30;25.50;;;;;;;;;;5070310;28;20684;-56
2022/11/23 10:57:27;;;;;;;26.07;23.53;;;;;;;;;;5050074;28;20610;-56
2022/11/23 11:00:15;;;;;;;24.93;22.50;;;;;;;;;;5052199;28;20686;-57
2022/11/23 11:02:44;;;;;;;25.17;22.73;;;;;;;;;;5051739;28;20683;-55
2022/11/23 11:05:12;;;;;;;26.77;23.80;;;;;;;;;;5052679;28;20609;-55
2022/11/23 11:07:38;;;;;;;26.17;23.77;;;;;;;;;;5051842;28;20722;-56
2022/11/23 11:10:03;;;;;;;27.07;24.30;;;;;;;;;;5051838;28;20778;-55
2022/11/23 11:12:31;;;;;;;25.90;23.30;;;;;;;;;;5051911;28;20719;-55
2022/11/23 11:15:01;;;;;;;25.50;23.00;;;;;;;;;;5051947;28;20175;-56
2022/11/23 11:17:27;;;;;;;26.63;23.83;;;;;;;;;;5051718;28;20579;-55
2022/11/23 11:19:53;;;;;;;26.23;23.53;;;;;;;;;;5069449;28;20669;-55
2022/11/23 11:22:32;;;;;;;25.43;22.87;;;;;;;;;;5070254;28;20640;-55
2022/11/23 11:24:57;;;;;;;26.00;23.40;;;;;;;;;;5071518;28;20614;-55
2022/11/23 11:27:23;;;;;;;23.90;21.37;;;;;;;;;;5071283;28;20607;-56
2022/11/23 11:29:58;;;;;;;23.60;21.20;;;;;;;;;;5069992;28;20172;-56
2022/11/23 11:32:23;;;;;;;24.47;22.07;;;;;;;;;;5071558;28;20586;-56
2022/11/23 11:35:07;;;;;;;23.25;21.02;;;;;;;;;;5071394;28;20633;-56
2022/11/23 11:37:35;;;;;;;24.93;22.43;;;;;;;;;;5069686;28;20616;-56
2022/11/23 11:40:16;;;;;;;25.40;22.67;;;;;;;;;;5071561;28;20595;-55
2022/11/23 11:42:47;;;;;;;23.07;20.87;;;;;;;;;;5068991;28;20628;-56
2022/11/23 11:45:20;;;;;;;22.37;20.27;;;;;;;;;;5051547;28;20650;-55
2022/11/23 11:47:49;;;;;;;20.33;18.30;;;;;;;;;;5050730;28;20632;-55
2022/11/23 11:50:25;;;;;;;22.13;19.93;;;;;;;;;;5051664;28;20571;-54
2022/11/23 11:52:53;;;;;;;21.50;19.40;;;;;;;;;;5051283;28;20674;-54
2022/11/23 11:55:22;;;;;;;21.00;19.10;;;;;;;;;;5066985;28;20962;-55
2022/11/23 11:58:19;;;;;;;20.00;17.90;;;;;;;;;;5070965;28;21122;-56
2022/11/23 12:00:46;;;;;;;21.47;19.30;;;;;;;;;;5069387;28;20700;-55
2022/11/23 12:03:11;;;;;;;22.50;20.40;;;;;;;;;;5071286;28;20573;-55
2022/11/23 12:05:56;;;;;;;22.23;20.13;;;;;;;;;;5069337;28;20647;-55
2022/11/23 12:08:32;;;;;;;23.37;21.03;;;;;;;;;;5070818;28;20193;-56
2022/11/23 12:10:58;;;;;;;21.80;19.57;;;;;;;;;;5070897;28;21202;-55
2022/11/23 12:13:26;;;;;;;24.27;21.77;;;;;;;;;;5070662;28;20590;-55
2022/11/23 12:16:06;;;;;;;23.27;21.07;;;;;;;;;;5057501;28;20601;-55
2022/11/23 12:18:31;;;;;;;22.20;20.03;;;;;;;;;;5050921;28;20638;-55
2022/11/23 12:21:01;;;;;;;22.13;20.03;;;;;;;;;;5050070;28;20633;-56
2022/11/23 12:23:38;;;;;;;22.97;20.67;;;;;;;;;;5050018;28;20667;-56
2022/11/23 12:26:32;;;;;;;22.23;19.93;;;;;;;;;;5069150;28;20598;-57
2022/11/23 12:28:58;;;;;;;24.00;21.60;;;;;;;;;;5053277;28;20630;-56
2022/11/23 12:31:26;;;;;;;23.20;20.87;;;;;;;;;;5050405;28;20681;-56
2022/11/23 12:34:10;;;;;;;23.80;21.40;;;;;;;;;;5050089;28;20187;-55
2022/11/23 12:36:44;;;;;;;24.60;22.30;;;;;;;;;;5050477;28;20622;-55
2022/11/23 12:39:12;;;;;;;24.30;21.80;;;;;;;;;;5068256;28;20648;-56
2022/11/23 12:41:40;;;;;;;25.17;22.57;;;;;;;;;;5049964;28;20714;-57
2022/11/23 12:44:08;;;;;;;25.20;22.50;;;;;;;;;;5055172;28;20644;-55
2022/11/23 12:46:58;;;;;;;24.33;21.57;;;;;;;;;;5077719;28;20605;-54
2022/11/23 12:49:37;;;;;;;23.80;21.37;;;;;;;;;;5074215;28;20703;-56
2022/11/23 12:52:22;;;;;;;25.27;22.93;;;;;;;;;;5085213;28;21122;-56
2022/11/23 12:54:59;;;;;;;25.57;22.90;;;;;;;;;;5062518;28;20766;-55
2022/11/23 12:57:32;;;;;;;25.87;23.23;;;;;;;;;;5065445;28;20623;-56
2022/11/23 13:00:03;;;;;;;25.87;23.27;;;;;;;;;;5067423;28;21149;-54
2022/11/23 13:02:47;;;;;;;29.07;24.43;;;;;;;;;;5067030;28;20640;-56
2022/11/23 13:05:21;;;;;;;26.00;23.20;;;;;;;;;;5067566;28;20666;-55
2022/11/23 13:07:49;;;;;;;29.20;26.30;;;;;;;;;;5058247;28;20628;-56
2022/11/23 13:10:20;;;;;;;27.60;24.77;;;;;;;;;;5050172;28;20699;-55
2022/11/23 13:13:04;;;;;;;29.47;26.37;;;;;;;;;;5055521;28;20780;-56
2022/11/23 13:15:41;;;;;;;28.27;25.47;;;;;;;;;;5067534;28;21228;-55
2022/11/23 13:18:25;;;;;;;30.07;27.07;;;;;;;;;;5051894;28;20822;-55
2022/11/23 13:21:09;;;;;;;28.47;25.57;;;;;;;;;;5054636;28;20667;-55
2022/11/23 13:23:37;;;;;;;31.00;28.07;;;;;;;;;;5056611;28;20678;-55
2022/11/23 13:26:14;;;;;;;31.60;28.50;;;;;;;;;;5046544;28;20614;-55
2022/11/23 13:28:39;;;;;;;30.57;27.50;;;;;;;;;;5051179;28;20991;-55
2022/11/23 13:31:13;;;;;;;30.07;27.17;;;;;;;;;;5056048;28;20608;-55
2022/11/23 13:33:38;;;;;;;29.70;26.50;;;;;;;;;;5081936;28;20262;-55
2022/11/23 13:36:03;;;;;;;30.38;27.27;;;;;;;;;;5058538;28;20623;-56
2022/11/23 13:38:35;;;;;;;30.03;27.00;;;;;;;;;;5085392;28;20209;-54
2022/11/23 13:41:00;;;;;;;29.90;26.90;;;;;;;;;;5083705;28;20753;-55
2022/11/23 13:43:30;;;;;;;29.30;25.80;;;;;;;;;;5083807;28;20605;-57
2022/11/23 13:46:21;;;;;;;29.77;26.90;;;;;;;;;;5072529;28;20681;-55
2022/11/23 13:48:46;;;;;;;28.80;25.97;;;;;;;;;;5086819;28;20580;-55
2022/11/23 13:51:20;;;;;;;28.70;25.80;;;;;;;;;;5085929;28;21032;-54
2022/11/23 13:53:49;;;;;;;30.97;27.80;;;;;;;;;;5087317;28;20615;-55
2022/11/23 13:56:17;;;;;;;30.97;27.87;;;;;;;;;;5083585;28;20609;-55
2022/11/23 13:58:49;;;;;;;31.13;28.00;;;;;;;;;;5088670;28;20903;-55
2022/11/23 14:01:35;;;;;;;29.03;26.33;;;;;;;;;;5086938;28;21077;-56
2022/11/23 14:04:18;;;;;;;31.87;28.20;;;;;;;;;;5085738;28;20705;-56
2022/11/23 14:06:43;;;;;;;29.57;26.47;;;;;;;;;;5079613;28;20605;-56
2022/11/23 14:09:11;;;;;;;30.00;27.07;;;;;;;;;;5070244;28;20583;-56
2022/11/23 14:11:48;;;;;;;30.83;27.60;;;;;;;;;;5073776;28;20202;-55
2022/11/23 14:14:16;;;;;;;29.67;26.60;;;;;;;;;;5077066;28;20646;-54
2022/11/23 14:17:10;;;;;;;33.40;29.93;;;;;;;;;;5058884;28;20718;-55
2022/11/23 14:19:42;;;;;;;29.50;26.50;;;;;;;;;;5049142;28;20678;-54